Time;durP1;ratioP1;P1;durP2;ratioP2;P2;SDS_P1;SDS_P2;PMS_P1;PMS_P2;Temp;Humidity;BMP_temperature;BMP_pressure;BME280_temperature;BME280_humidity;BME280_pressure;Samples;Min_cycle;Max_cycle;Signal;HPM_P1;HPM_P2
2024/01/11 00:00:26;;;;;;;29.40;13.93;;;-2.30;99.90;;;;;;5049499;28;20173;-50
2024/01/11 00:02:52;;;;;;;28.17;14.77;;;-2.40;99.90;;;;;;5049657;28;20617;-48
2024/01/11 00:05:17;;;;;;;34.67;15.27;;;-2.50;99.90;;;;;;5049674;28;20624;-49
2024/01/11 00:07:43;;;;;;;32.27;15.67;;;-2.40;99.90;;;;;;5049523;28;20185;-49
2024/01/11 00:10:09;;;;;;;26.77;14.33;;;-2.50;99.90;;;;;;5049353;28;20506;-49
2024/01/11 00:12:34;;;;;;;29.77;14.03;;;-2.50;99.90;;;;;;5050066;28;20599;-49
2024/01/11 00:15:00;;;;;;;31.83;15.27;;;-2.50;99.90;;;;;;5049103;28;20173;-50
2024/01/11 00:17:25;;;;;;;32.23;14.73;;;-2.50;99.90;;;;;;5051045;28;20213;-52
2024/01/11 00:19:52;;;;;;;32.27;15.27;;;-2.50;99.90;;;;;;5053701;28;20592;-51
2024/01/11 00:22:17;;;;;;;31.73;14.40;;;-2.40;99.90;;;;;;5053825;28;20185;-50
2024/01/11 00:24:43;;;;;;;27.43;14.77;;;-2.50;99.90;;;;;;5053463;28;20230;-52
2024/01/11 00:27:08;;;;;;;28.97;14.40;;;-2.40;99.90;;;;;;5053063;28;20188;-51
2024/01/11 00:29:35;;;;;;;26.93;14.37;;;-2.50;99.90;;;;;;5053576;28;20170;-51
2024/01/11 00:32:01;;;;;;;29.03;15.40;;;-2.40;99.90;;;;;;5053464;28;20255;-51
2024/01/11 00:34:26;;;;;;;26.87;14.43;;;-2.50;99.90;;;;;;5053355;28;20772;-51
2024/01/11 00:36:52;;;;;;;32.13;16.20;;;-2.50;99.90;;;;;;5053235;28;20213;-51
2024/01/11 00:39:17;;;;;;;28.33;15.87;;;-2.50;99.90;;;;;;5053596;28;20178;-55
2024/01/11 00:41:43;;;;;;;26.77;14.40;;;-2.50;99.90;;;;;;5053473;28;20178;-51
2024/01/11 00:44:09;;;;;;;31.37;15.50;;;-2.50;99.90;;;;;;5051698;28;20765;-50
2024/01/11 00:46:35;;;;;;;30.83;14.73;;;-2.60;99.90;;;;;;5053368;28;20518;-49
2024/01/11 00:49:00;;;;;;;30.50;15.57;;;-2.60;99.90;;;;;;5052631;28;20177;-50
2024/01/11 00:51:26;;;;;;;28.10;14.73;;;-2.60;99.90;;;;;;5052915;28;20177;-50
2024/01/11 00:53:52;;;;;;;34.80;15.23;;;-2.50;99.90;;;;;;5052728;28;20194;-50
2024/01/11 00:56:20;;;;;;;29.53;15.37;;;-2.50;99.90;;;;;;5052376;28;20230;-52
2024/01/11 00:58:46;;;;;;;27.50;14.90;;;-2.50;99.90;;;;;;5052715;28;20176;-54
2024/01/11 01:01:12;;;;;;;30.40;15.83;;;-2.50;99.90;;;;;;5052406;28;20626;-54
2024/01/11 01:03:38;;;;;;;31.80;15.60;;;-2.50;99.90;;;;;;5052472;28;20178;-50
2024/01/11 01:06:04;;;;;;;30.00;15.30;;;-2.50;99.90;;;;;;5053176;28;20173;-51
2024/01/11 01:08:30;;;;;;;30.77;14.17;;;-2.50;99.90;;;;;;5052660;28;20181;-51
2024/01/11 01:10:56;;;;;;;29.90;14.40;;;-2.60;99.90;;;;;;5052338;28;20169;-53
2024/01/11 01:13:22;;;;;;;23.87;13.63;;;-2.60;99.90;;;;;;5052194;28;20167;-54
2024/01/11 01:15:47;;;;;;;30.83;15.80;;;-2.60;99.90;;;;;;5052060;28;20212;-53
2024/01/11 01:18:13;;;;;;;29.73;15.00;;;-2.60;99.90;;;;;;5052153;28;20578;-54
2024/01/11 01:20:38;;;;;;;32.07;15.40;;;-2.60;99.90;;;;;;5052112;28;20178;-53
2024/01/11 01:23:04;;;;;;;28.47;14.43;;;-2.60;99.90;;;;;;5052557;28;20185;-53
2024/01/11 01:25:30;;;;;;;35.37;15.60;;;-2.60;99.90;;;;;;5051946;28;20174;-51
2024/01/11 01:27:55;;;;;;;28.07;14.83;;;-2.70;99.90;;;;;;5051747;28;20173;-48
2024/01/11 01:30:23;;;;;;;30.63;15.87;;;-2.60;99.90;;;;;;5051207;28;20274;-49
2024/01/11 01:32:48;;;;;;;33.47;16.97;;;-2.60;99.90;;;;;;5052149;28;20271;-49
2024/01/11 01:35:14;;;;;;;29.37;15.47;;;-2.70;99.90;;;;;;5051761;28;20255;-49
2024/01/11 01:37:39;;;;;;;27.07;15.43;;;-2.80;99.90;;;;;;5051576;28;20208;-49
2024/01/11 01:40:07;;;;;;;28.17;15.63;;;-2.70;99.90;;;;;;5052095;28;20170;-51
2024/01/11 01:42:33;;;;;;;31.53;15.60;;;-2.70;99.90;;;;;;5052153;28;20219;-50
2024/01/11 01:44:58;;;;;;;31.50;17.00;;;-2.70;99.90;;;;;;5051568;28;20200;-49
2024/01/11 01:47:25;;;;;;;29.03;16.07;;;-2.70;99.90;;;;;;5051414;28;20174;-52
2024/01/11 01:49:51;;;;;;;27.67;14.40;;;-2.70;99.90;;;;;;5051535;28;20176;-53
2024/01/11 01:52:18;;;;;;;36.90;14.87;;;-2.90;99.90;;;;;;5051457;28;20200;-52
2024/01/11 01:54:44;;;;;;;34.80;17.23;;;-3.10;99.90;;;;;;5051739;28;20200;-54
2024/01/11 01:57:11;;;;;;;31.60;16.27;;;-3.00;99.90;;;;;;5051541;28;20629;-54
2024/01/11 01:59:38;;;;;;;31.23;16.57;;;-2.90;99.90;;;;;;5051944;28;20171;-54
2024/01/11 02:02:05;;;;;;;25.27;14.83;;;-2.90;99.90;;;;;;5052246;28;20168;-51
2024/01/11 02:04:31;;;;;;;35.97;15.30;;;-2.90;99.90;;;;;;5052085;28;20205;-53
2024/01/11 02:06:58;;;;;;;31.83;15.27;;;-2.90;99.90;;;;;;5051630;28;20209;-52
2024/01/11 02:09:24;;;;;;;31.00;15.07;;;-2.90;99.90;;;;;;5051223;28;20186;-55
2024/01/11 02:11:52;;;;;;;30.13;14.77;;;-2.90;99.90;;;;;;5051257;28;20167;-53
2024/01/11 02:14:19;;;;;;;30.23;15.57;;;-2.90;99.90;;;;;;5051434;28;20177;-53
2024/01/11 02:16:45;;;;;;;37.63;15.67;;;-2.80;99.90;;;;;;5051430;28;20240;-54
2024/01/11 02:19:13;;;;;;;28.80;15.50;;;-2.90;99.90;;;;;;5051480;28;20169;-54
2024/01/11 02:21:42;;;;;;;35.63;15.63;;;-3.00;99.90;;;;;;5051554;28;20185;-56
2024/01/11 02:24:08;;;;;;;28.43;14.90;;;-2.90;99.90;;;;;;5051403;28;20176;-54
2024/01/11 02:26:34;;;;;;;32.77;15.00;;;-2.90;99.90;;;;;;5051626;28;20246;-51
2024/01/11 02:29:00;;;;;;;27.63;14.53;;;-3.00;99.90;;;;;;5050874;28;20241;-53
2024/01/11 02:31:26;;;;;;;27.37;15.27;;;-2.90;99.90;;;;;;5051009;28;20510;-53
2024/01/11 02:33:53;;;;;;;31.77;15.73;;;-2.90;99.90;;;;;;5051018;28;20255;-52
2024/01/11 02:36:20;;;;;;;30.17;14.30;;;-2.80;99.90;;;;;;5051020;28;20756;-51
2024/01/11 02:38:46;;;;;;;30.60;15.37;;;-2.90;99.90;;;;;;5051322;28;20241;-52
2024/01/11 02:41:18;;;;;;;30.00;14.97;;;-2.90;99.90;;;;;;5051096;28;20200;-51
2024/01/11 02:43:48;;;;;;;27.87;15.20;;;-2.90;99.90;;;;;;5049733;28;20937;-52
2024/01/11 02:46:17;;;;;;;36.17;16.60;;;-2.90;99.90;;;;;;5050860;28;20267;-50
2024/01/11 02:48:42;;;;;;;28.63;14.80;;;-2.90;99.90;;;;;;5050592;28;20680;-49
2024/01/11 02:51:08;;;;;;;32.13;15.87;;;-2.90;99.90;;;;;;5050454;28;20172;-49
2024/01/11 02:53:34;;;;;;;31.30;14.63;;;-3.00;99.90;;;;;;5050956;28;20182;-52
2024/01/11 02:56:01;;;;;;;33.67;14.27;;;-3.00;99.90;;;;;;5050242;28;20225;-51
2024/01/11 02:58:26;;;;;;;37.60;15.87;;;-3.20;99.90;;;;;;5050532;28;20173;-50
2024/01/11 03:00:52;;;;;;;31.57;14.57;;;-3.10;99.90;;;;;;5050616;28;20180;-54
2024/01/11 03:03:17;;;;;;;35.10;16.80;;;-3.00;99.90;;;;;;5050574;28;20189;-53
2024/01/11 03:05:43;;;;;;;30.37;14.87;;;-3.00;99.90;;;;;;5050278;28;20182;-52
2024/01/11 03:08:08;;;;;;;42.17;16.50;;;-2.90;99.90;;;;;;5050434;28;20168;-54
2024/01/11 03:10:37;;;;;;;36.17;15.70;;;-2.90;99.90;;;;;;5050923;28;20177;-51
2024/01/11 03:13:03;;;;;;;26.73;15.20;;;-2.90;99.90;;;;;;5050735;28;20364;-51
2024/01/11 03:15:28;;;;;;;30.50;15.20;;;-3.00;99.90;;;;;;5049959;28;20263;-54
2024/01/11 03:17:54;;;;;;;36.20;14.77;;;-3.00;99.90;;;;;;5050393;28;20186;-53
2024/01/11 03:20:24;;;;;;;33.53;16.40;;;-3.00;99.90;;;;;;5050270;28;20176;-52
2024/01/11 03:22:50;;;;;;;30.63;15.70;;;-2.50;99.90;;;;;;5050456;28;20184;-49
2024/01/11 03:25:16;;;;;;;32.33;14.80;;;-3.10;99.90;;;;;;5050173;28;20169;-52
2024/01/11 03:27:41;;;;;;;32.07;16.17;;;-3.20;99.90;;;;;;5049726;28;20174;-50
2024/01/11 03:30:07;;;;;;;32.70;16.80;;;-3.20;99.90;;;;;;5049999;28;20187;-50
2024/01/11 03:32:33;;;;;;;28.43;15.40;;;-3.10;99.90;;;;;;5050107;28;20222;-52
2024/01/11 03:34:58;;;;;;;29.30;14.37;;;-3.10;99.90;;;;;;5049641;28;20168;-51
2024/01/11 03:37:24;;;;;;;31.63;16.63;;;-3.10;99.90;;;;;;5048109;28;20273;-49
2024/01/11 03:39:49;;;;;;;33.87;15.57;;;-3.10;99.90;;;;;;5049506;28;20178;-52
2024/01/11 03:42:15;;;;;;;32.27;15.10;;;-3.30;99.90;;;;;;5049487;28;20235;-51
2024/01/11 03:44:40;;;;;;;35.60;15.20;;;-3.20;99.90;;;;;;5049476;28;20176;-51
2024/01/11 03:47:06;;;;;;;29.93;15.37;;;-3.30;99.90;;;;;;5049677;28;20247;-52
2024/01/11 03:49:31;;;;;;;32.87;16.07;;;-3.30;99.90;;;;;;5049780;28;20205;-53
2024/01/11 03:51:57;;;;;;;33.07;16.03;;;-3.30;99.90;;;;;;5048780;28;20175;-51
2024/01/11 03:54:22;;;;;;;39.03;16.77;;;-3.20;99.90;;;;;;5049348;28;20216;-55
2024/01/11 03:56:48;;;;;;;31.13;14.87;;;-3.20;99.90;;;;;;5049191;28;20224;-51
2024/01/11 03:59:14;;;;;;;31.90;16.13;;;-3.20;99.90;;;;;;5049245;28;20172;-49
2024/01/11 04:01:41;;;;;;;31.37;14.80;;;-3.30;99.90;;;;;;5049140;28;20196;-49
2024/01/11 04:04:06;;;;;;;29.43;15.83;;;-3.30;99.90;;;;;;5049492;28;20258;-50
2024/01/11 04:06:32;;;;;;;28.53;15.60;;;-3.30;99.90;;;;;;5049756;28;20284;-52
2024/01/11 04:08:57;;;;;;;33.67;15.63;;;-3.30;99.90;;;;;;5049162;28;20175;-54
2024/01/11 04:11:26;;;;;;;36.53;16.90;;;-3.30;99.90;;;;;;5049329;28;20171;-51
2024/01/11 04:13:52;;;;;;;35.83;16.43;;;-3.30;99.90;;;;;;5049321;28;20168;-53
2024/01/11 04:16:17;;;;;;;33.60;16.57;;;-3.30;99.90;;;;;;5049353;28;20204;-51
2024/01/11 04:18:43;;;;;;;29.80;15.40;;;-3.30;99.90;;;;;;5049538;28;20641;-51
2024/01/11 04:21:22;;;;;;;33.03;15.20;;;-3.20;99.90;;;;;;5049562;28;20631;-51
2024/01/11 04:23:47;;;;;;;38.00;15.63;;;-3.20;99.90;;;;;;5049693;28;20259;-50
2024/01/11 04:26:13;;;;;;;30.57;14.47;;;-3.30;99.90;;;;;;5049508;28;20640;-49
2024/01/11 04:28:38;;;;;;;31.30;16.33;;;-3.30;99.90;;;;;;5049323;28;20174;-51
2024/01/11 04:31:04;;;;;;;34.20;16.33;;;-3.30;99.90;;;;;;5049829;28;20164;-53
2024/01/11 04:33:30;;;;;;;37.63;15.83;;;-3.40;99.90;;;;;;5049448;28;20167;-50
2024/01/11 04:35:55;;;;;;;32.50;15.17;;;-3.30;99.90;;;;;;5048879;28;20557;-51
2024/01/11 04:38:21;;;;;;;31.13;15.33;;;-3.30;99.90;;;;;;5048666;28;20313;-52
2024/01/11 04:40:46;;;;;;;37.50;15.33;;;-3.40;99.90;;;;;;5049380;28;20224;-52
2024/01/11 04:43:12;;;;;;;29.63;15.27;;;-3.40;99.90;;;;;;5049585;28;20176;-51
2024/01/11 04:45:37;;;;;;;31.83;16.03;;;-3.40;99.90;;;;;;5049036;28;20171;-52
2024/01/11 04:48:03;;;;;;;29.27;15.33;;;-3.30;99.90;;;;;;5049415;28;20182;-52
2024/01/11 04:50:29;;;;;;;34.93;15.60;;;-3.30;99.90;;;;;;5048753;28;20745;-52
2024/01/11 04:52:54;;;;;;;37.13;16.27;;;-3.30;99.90;;;;;;5048823;28;20171;-52
2024/01/11 04:55:20;;;;;;;39.20;17.43;;;-3.30;99.90;;;;;;5047298;28;20584;-53
2024/01/11 04:57:45;;;;;;;31.90;16.00;;;-3.30;99.90;;;;;;5048604;28;20282;-52
2024/01/11 05:00:11;;;;;;;38.43;17.77;;;-3.30;99.90;;;;;;5048718;28;20175;-52
2024/01/11 05:02:37;;;;;;;34.90;17.27;;;-3.30;99.90;;;;;;5048926;28;20173;-53
2024/01/11 05:05:03;;;;;;;39.67;17.47;;;-3.30;99.90;;;;;;5051774;28;20655;-54
2024/01/11 05:07:29;;;;;;;41.20;18.33;;;-3.40;99.90;;;;;;5052170;28;20637;-50
2024/01/11 05:09:54;;;;;;;38.30;18.13;;;-3.50;99.90;;;;;;5052544;28;20226;-54
2024/01/11 05:12:20;;;;;;;34.40;18.00;;;-3.40;99.90;;;;;;5052581;28;20175;-52
2024/01/11 05:14:45;;;;;;;35.67;17.67;;;-1.30;99.90;;;;;;5052334;28;20163;-52
2024/01/11 05:17:11;;;;;;;39.27;19.20;;;-3.40;99.90;;;;;;5052171;28;20262;-52
2024/01/11 05:19:36;;;;;;;33.47;17.80;;;-3.40;99.90;;;;;;5051981;28;20205;-54
2024/01/11 05:22:02;;;;;;;43.77;19.20;;;-3.40;99.90;;;;;;5052709;28;20211;-51
2024/01/11 05:24:28;;;;;;;40.27;19.53;;;-3.50;99.90;;;;;;5052005;28;20175;-53
2024/01/11 05:26:53;;;;;;;38.20;18.73;;;-3.50;99.90;;;;;;5052383;28;20619;-52
2024/01/11 05:29:19;;;;;;;38.93;18.50;;;-3.50;99.90;;;;;;5052643;28;20712;-51
2024/01/11 05:31:45;;;;;;;45.30;21.03;;;-3.50;99.90;;;;;;5052185;28;20176;-51
2024/01/11 05:34:12;;;;;;;41.43;19.60;;;-3.50;99.90;;;;;;5052277;28;20169;-49
2024/01/11 05:36:38;;;;;;;35.77;18.40;;;-3.50;99.90;;;;;;5052108;28;20693;-49
2024/01/11 05:39:03;;;;;;;35.23;18.30;;;-3.60;99.90;;;;;;5052612;28;20255;-53
2024/01/11 05:41:29;;;;;;;38.70;20.10;;;-3.60;99.90;;;;;;5052344;28;20678;-51
2024/01/11 05:43:54;;;;;;;42.20;19.37;;;-3.70;99.90;;;;;;5052013;28;20165;-51
2024/01/11 05:46:20;;;;;;;40.67;19.47;;;-3.70;99.90;;;;;;5051601;28;20169;-53
2024/01/11 05:48:45;;;;;;;37.77;19.33;;;-3.60;99.90;;;;;;5051637;28;20178;-52
2024/01/11 05:51:12;;;;;;;45.23;20.87;;;-3.60;99.90;;;;;;5051755;28;20168;-50
2024/01/11 05:53:37;;;;;;;42.87;18.87;;;-3.60;99.90;;;;;;5051710;28;20182;-51
2024/01/11 05:56:08;;;;;;;42.13;19.57;;;-3.60;99.90;;;;;;5051734;28;20224;-52
2024/01/11 05:58:33;;;;;;;41.03;20.80;;;-3.60;99.90;;;;;;5052259;28;20179;-51
2024/01/11 06:00:59;;;;;;;45.03;21.20;;;-3.70;99.90;;;;;;5051929;28;20532;-50
2024/01/11 06:03:25;;;;;;;38.80;20.17;;;-3.70;99.90;;;;;;5051561;28;20220;-50
2024/01/11 06:05:50;;;;;;;48.57;22.20;;;-3.60;99.90;;;;;;5051338;28;20216;-51
2024/01/11 06:08:16;;;;;;;41.37;21.80;;;-3.60;99.90;;;;;;5050985;28;20166;-52
2024/01/11 06:10:42;;;;;;;45.40;21.20;;;-3.60;99.90;;;;;;5051278;28;20175;-52
2024/01/11 06:13:09;;;;;;;40.33;19.57;;;-3.60;99.90;;;;;;5051073;28;20502;-49
2024/01/11 06:15:35;;;;;;;42.00;19.53;;;-3.60;99.90;;;;;;5050677;28;20259;-50
2024/01/11 06:18:00;;;;;;;46.13;21.37;;;-3.70;99.90;;;;;;5051847;28;20260;-51
2024/01/11 06:20:26;;;;;;;42.20;19.63;;;-3.60;99.90;;;;;;5050177;28;20580;-52
2024/01/11 06:22:51;;;;;;;45.63;21.33;;;-3.60;99.90;;;;;;5051318;28;20176;-49
2024/01/11 06:25:18;;;;;;;40.83;20.87;;;-3.60;99.90;;;;;;5051284;28;20171;-54
2024/01/11 06:27:44;;;;;;;38.57;19.33;;;-3.60;99.90;;;;;;5051181;28;20159;-52
2024/01/11 06:30:10;;;;;;;45.47;20.07;;;-3.70;99.90;;;;;;5051122;28;20665;-51
2024/01/11 06:32:36;;;;;;;42.23;20.13;;;-3.80;99.90;;;;;;5050838;28;20213;-51
2024/01/11 06:35:02;;;;;;;52.47;21.23;;;-3.70;99.90;;;;;;5050468;28;20212;-51
2024/01/11 06:37:28;;;;;;;44.93;22.07;;;-3.80;99.90;;;;;;5050803;28;20258;-52
2024/01/11 06:39:53;;;;;;;49.10;21.50;;;-3.80;99.90;;;;;;5050705;28;20659;-51
2024/01/11 06:42:19;;;;;;;49.30;21.73;;;-3.80;99.90;;;;;;5048970;28;20544;-51
2024/01/11 06:44:44;;;;;;;44.10;21.73;;;-3.80;99.90;;;;;;5050453;28;20175;-50
2024/01/11 06:47:10;;;;;;;48.07;23.80;;;-3.70;99.90;;;;;;5050414;28;20266;-50
2024/01/11 06:49:39;;;;;;;47.20;21.60;;;-3.70;99.90;;;;;;5050537;28;20172;-51
2024/01/11 06:52:05;;;;;;;48.57;22.93;;;-3.60;99.90;;;;;;5050675;28;20258;-50
2024/01/11 06:54:32;;;;;;;59.37;21.90;;;-3.70;99.90;;;;;;5050695;28;20273;-50
2024/01/11 06:56:57;;;;;;;71.60;22.73;;;-3.70;99.90;;;;;;5050417;28;20573;-50
2024/01/11 06:59:23;;;;;;;50.83;23.00;;;-3.70;99.90;;;;;;5050244;28;20166;-52
2024/01/11 07:01:49;;;;;;;43.23;21.03;;;-3.70;99.90;;;;;;5050556;28;20680;-50
2024/01/11 07:04:15;;;;;;;46.23;20.00;;;-3.70;99.90;;;;;;5050461;28;20178;-51
2024/01/11 07:06:40;;;;;;;47.03;20.20;;;-3.70;99.90;;;;;;5050519;28;20173;-53
2024/01/11 07:09:06;;;;;;;47.73;21.87;;;-3.80;99.90;;;;;;5050374;28;20180;-53
2024/01/11 07:11:32;;;;;;;48.20;21.17;;;-3.70;99.90;;;;;;5050658;28;20179;-53
2024/01/11 07:13:58;;;;;;;55.60;23.07;;;-3.90;99.90;;;;;;5050059;28;20658;-54
2024/01/11 07:16:23;;;;;;;49.07;22.33;;;-3.90;99.90;;;;;;5050114;28;20674;-51
2024/01/11 07:18:49;;;;;;;46.57;22.87;;;-3.90;99.90;;;;;;5049734;28;20176;-50
2024/01/11 07:21:31;;;;;;;42.27;20.77;;;-3.90;99.90;;;;;;5049743;28;20181;-54
2024/01/11 07:23:59;;;;;;;47.83;21.80;;;-4.00;99.90;;;;;;5049694;28;20185;-53
2024/01/11 07:26:26;;;;;;;46.53;20.67;;;-4.00;99.90;;;;;;5048934;28;20203;-55
2024/01/11 07:28:51;;;;;;;50.47;22.10;;;-4.00;99.90;;;;;;5048401;28;20538;-53
2024/01/11 07:31:17;;;;;;;58.23;22.57;;;-4.00;99.90;;;;;;5049546;28;20170;-52
2024/01/11 07:33:43;;;;;;;46.73;21.40;;;-4.00;99.90;;;;;;5049546;28;20169;-51
2024/01/11 07:36:09;;;;;;;46.67;19.57;;;-4.00;99.90;;;;;;5049502;28;20211;-51
2024/01/11 07:38:35;;;;;;;45.70;19.53;;;-4.00;99.90;;;;;;5049926;28;20188;-52
2024/01/11 07:41:01;;;;;;;46.47;19.23;;;-4.10;99.90;;;;;;5050008;28;20159;-51
2024/01/11 07:43:28;;;;;;;42.23;21.00;;;-4.00;99.90;;;;;;5049563;28;20178;-52
2024/01/11 07:45:54;;;;;;;42.13;19.73;;;-4.00;99.90;;;;;;5049883;28;20179;-52
2024/01/11 07:48:20;;;;;;;53.40;20.97;;;-4.00;99.90;;;;;;5049615;28;20249;-52
2024/01/11 07:50:45;;;;;;;42.43;21.60;;;-4.00;99.90;;;;;;5049217;28;20189;-52
2024/01/11 07:53:11;;;;;;;41.67;22.00;;;-3.90;99.90;;;;;;5049294;28;20183;-51
2024/01/11 07:55:38;;;;;;;47.73;20.90;;;-4.00;99.90;;;;;;5049225;28;20215;-51
2024/01/11 07:58:04;;;;;;;39.90;19.87;;;-4.00;99.90;;;;;;5049762;28;20682;-54
2024/01/11 08:00:30;;;;;;;41.17;19.10;;;-4.00;99.90;;;;;;5050404;28;20281;-54
2024/01/11 08:02:56;;;;;;;40.13;17.97;;;-3.90;99.90;;;;;;5049582;28;20255;-55
2024/01/11 08:05:21;;;;;;;41.13;20.27;;;-3.90;99.90;;;;;;5049590;28;20250;-53
2024/01/11 08:07:47;;;;;;;38.70;19.30;;;-3.90;99.90;;;;;;5049592;28;20269;-53
2024/01/11 08:10:13;;;;;;;42.20;20.17;;;-3.80;99.90;;;;;;5049533;28;20169;-53
2024/01/11 08:12:38;;;;;;;44.00;19.47;;;-3.90;99.90;;;;;;5049764;28;20169;-51
2024/01/11 08:15:04;;;;;;;40.03;19.20;;;-3.80;99.90;;;;;;5050475;28;20539;-54
2024/01/11 08:17:30;;;;;;;37.97;18.03;;;-1.70;99.90;;;;;;5049810;28;20809;-51
2024/01/11 08:19:56;;;;;;;45.60;19.03;;;-3.70;99.90;;;;;;5049604;28;20167;-54
2024/01/11 08:22:22;;;;;;;42.97;20.03;;;-3.70;99.90;;;;;;5049379;28;20168;-52
2024/01/11 08:24:48;;;;;;;38.00;19.33;;;-3.70;99.90;;;;;;5049622;28;20171;-53
2024/01/11 08:27:17;;;;;;;43.53;19.83;;;-3.60;99.90;;;;;;5049432;28;20173;-52
2024/01/11 08:29:43;;;;;;;41.40;19.20;;;-3.60;99.90;;;;;;5049450;28;20632;-53
2024/01/11 08:32:08;;;;;;;39.80;19.00;;;-3.50;99.90;;;;;;5047869;28;20173;-52
2024/01/11 08:34:34;;;;;;;44.10;21.17;;;-3.40;99.90;;;;;;5049459;28;20566;-51
2024/01/11 08:37:00;;;;;;;39.13;19.10;;;-3.40;99.90;;;;;;5049780;28;20219;-52
2024/01/11 08:39:25;;;;;;;45.37;21.23;;;-3.40;99.90;;;;;;5052670;28;20166;-51
2024/01/11 08:41:52;;;;;;;44.83;20.17;;;-3.40;99.90;;;;;;5053261;28;20172;-51
2024/01/11 08:44:18;;;;;;;38.77;19.63;;;-3.40;99.90;;;;;;5052968;28;20228;-52
2024/01/11 08:46:43;;;;;;;56.30;21.83;;;-3.30;99.90;;;;;;5052683;28;20293;-51
2024/01/11 08:49:09;;;;;;;41.00;21.30;;;-3.20;99.90;;;;;;5052900;28;20178;-52
2024/01/11 08:51:35;;;;;;;47.93;22.07;;;-3.00;99.90;;;;;;5052977;28;20210;-52
2024/01/11 08:54:00;;;;;;;43.50;22.20;;;-2.90;99.90;;;;;;5051701;28;20195;-53
2024/01/11 08:56:26;;;;;;;43.23;21.13;;;-2.80;99.90;;;;;;5052283;28;20587;-52
2024/01/11 08:58:51;;;;;;;45.05;21.15;;;-2.80;99.90;;;;;;5052571;28;20169;-52
2024/01/11 09:01:22;;;;;;;44.03;20.33;;;-2.80;99.90;;;;;;5052456;28;20635;-53
2024/01/11 09:03:47;;;;;;;47.67;22.10;;;-2.80;99.90;;;;;;5051481;28;20665;-51
2024/01/11 09:06:13;;;;;;;44.00;20.43;;;-2.70;99.90;;;;;;5052654;28;20261;-51
2024/01/11 09:08:41;;;;;;;39.83;21.03;;;-2.60;99.90;;;;;;5052537;28;20186;-52
2024/01/11 09:11:06;;;;;;;49.20;23.07;;;-2.60;99.90;;;;;;5052271;28;20155;-51
2024/01/11 09:13:32;;;;;;;44.30;22.50;;;-2.50;99.90;;;;;;5052811;28;20178;-51
2024/01/11 09:15:58;;;;;;;47.87;23.43;;;-2.40;99.90;;;;;;5052438;28;20291;-52
2024/01/11 09:18:23;;;;;;;65.43;26.33;;;-2.20;99.90;;;;;;5052215;28;20181;-51
2024/01/11 09:20:49;;;;;;;51.37;23.67;;;-2.20;99.90;;;;;;5052331;28;20254;-51
2024/01/11 09:23:15;;;;;;;40.07;21.90;;;-2.00;99.90;;;;;;5052859;28;20192;-51
2024/01/11 09:25:41;;;;;;;41.60;22.47;;;-2.00;99.90;;;;;;5052131;28;20174;-51
2024/01/11 09:28:07;;;;;;;49.22;22.58;;;-2.00;99.90;;;;;;5052395;28;20281;-52
2024/01/11 09:30:33;;;;;;;45.28;21.65;;;-1.90;99.90;;;;;;5053042;28;20229;-51
2024/01/11 09:32:58;;;;;;;44.08;22.25;;;-1.90;99.90;;;;;;5052545;28;20626;-52
2024/01/11 09:35:24;;;;;;;40.72;21.23;;;-1.80;99.90;;;;;;5052217;28;20600;-51
2024/01/11 09:37:51;;;;;;;43.47;24.17;;;-1.80;99.90;;;;;;5051713;28;20206;-51
2024/01/11 09:40:18;;;;;;;42.15;21.63;;;-1.60;99.90;;;;;;5052160;28;20174;-52
2024/01/11 09:42:44;;;;;;;44.67;23.27;;;-1.60;99.90;;;;;;5052144;28;20174;-51
2024/01/11 09:45:13;;;;;;;41.97;21.85;;;-1.50;99.90;;;;;;5052044;28;20216;-52
2024/01/11 09:47:40;;;;;;;44.30;23.38;;;-1.60;99.90;;;;;;5051724;28;20658;-51
2024/01/11 09:50:07;;;;;;;44.03;22.70;;;-1.40;99.90;;;;;;5050790;28;20578;-52
2024/01/11 09:52:33;;;;;;;47.20;23.55;;;-1.40;99.90;;;;;;5052190;28;20300;-52
2024/01/11 09:54:59;;;;;;;46.72;22.63;;;-1.30;99.90;;;;;;5051361;28;20245;-52
2024/01/11 09:57:29;;;;;;;45.97;22.63;;;-1.20;99.90;;;;;;5051787;28;20214;-51
2024/01/11 09:59:57;;;;;;;53.20;24.42;;;-1.30;99.90;;;;;;5050570;28;20203;-51
2024/01/11 10:02:29;;;;;;;38.72;18.83;;;-1.20;99.90;;;;;;5051553;28;20174;-51
2024/01/11 10:04:55;;;;;;;45.97;22.20;;;-1.20;99.90;;;;;;5051339;28;20162;-52
2024/01/11 10:07:22;;;;;;;43.22;22.10;;;-1.30;99.90;;;;;;5051175;28;20252;-51
2024/01/11 10:09:48;;;;;;;41.83;22.88;;;-1.10;99.90;;;;;;5051337;28;20158;-53
2024/01/11 10:12:14;;;;;;;40.15;23.13;;;-1.00;99.90;;;;;;5051165;28;20178;-53
2024/01/11 10:14:39;;;;;;;42.80;20.77;;;-1.00;99.90;;;;;;5051301;28;20186;-53
2024/01/11 10:17:06;;;;;;;47.63;23.33;;;-1.00;99.90;;;;;;5051121;28;20234;-53
2024/01/11 10:19:31;;;;;;;48.80;23.10;;;-0.90;99.90;;;;;;5050721;28;20171;-53
2024/01/11 10:21:58;;;;;;;41.67;21.25;;;-0.80;99.90;;;;;;5051161;28;20577;-53
2024/01/11 10:24:26;;;;;;;38.30;20.75;;;-0.70;99.90;;;;;;5051238;28;20178;-54
2024/01/11 10:26:59;;;;;;;40.63;21.27;;;-0.60;99.90;;;;;;5051177;28;20233;-53
2024/01/11 10:29:30;;;;;;;40.17;21.83;;;-0.60;99.90;;;;;;5050839;28;20185;-54
2024/01/11 10:31:56;;;;;;;47.30;23.02;;;-0.70;99.90;;;;;;5050680;28;20301;-54
2024/01/11 10:34:23;;;;;;;40.35;20.48;;;-0.60;99.90;;;;;;5050737;28;20193;-53
2024/01/11 10:36:53;;;;;;;40.78;21.63;;;-0.60;99.90;;;;;;5050647;28;20257;-54
2024/01/11 10:39:24;;;;;;;46.70;22.08;;;-0.60;99.90;;;;;;5050846;28;20162;-54
2024/01/11 10:41:52;;;;;;;42.17;23.27;;;-0.50;99.90;;;;;;5050728;28;20178;-53
2024/01/11 10:44:22;;;;;;;41.08;23.42;;;-0.50;99.90;;;;;;5050492;28;20163;-54
2024/01/11 10:46:49;;;;;;;45.50;22.45;;;-0.50;99.90;;;;;;5051047;28;20182;-52
2024/01/11 10:49:19;;;;;;;45.30;22.33;;;-0.40;99.90;;;;;;5050419;28;20163;-52
2024/01/11 10:52:02;;;;;;;39.78;19.70;;;-0.30;99.90;;;;;;5050363;28;20174;-52
2024/01/11 10:54:28;;;;;;;39.08;20.40;;;-0.30;99.90;;;;;;5050452;28;20167;-53
2024/01/11 10:56:56;;;;;;;45.25;21.67;;;-0.40;99.90;;;;;;5050440;28;20612;-53
2024/01/11 10:59:25;;;;;;;40.40;21.05;;;-0.30;99.90;;;;;;5050506;28;20163;-52
2024/01/11 11:01:56;;;;;;;39.50;23.00;;;-0.40;99.90;;;;;;5049535;28;20188;-57
2024/01/11 11:04:22;;;;;;;44.60;22.48;;;-0.20;99.90;;;;;;5050369;28;20177;-53
2024/01/11 11:06:57;;;;;;;42.63;22.42;;;-0.10;99.90;;;;;;5050353;28;20559;-54
2024/01/11 11:09:22;;;;;;;43.63;23.13;;;-0.30;99.90;;;;;;5050938;28;20201;-54
2024/01/11 11:11:49;;;;;;;46.58;22.17;;;-0.30;99.90;;;;;;5050254;28;20221;-54
2024/01/11 11:14:17;;;;;;;44.55;23.67;;;-0.20;99.90;;;;;;5049949;28;20175;-53
2024/01/11 11:16:45;;;;;;;43.28;22.58;;;-0.10;99.90;;;;;;5049745;28;20255;-54
2024/01/11 11:19:12;;;;;;;46.17;23.25;;;-0.20;99.90;;;;;;5049848;28;20178;-54
2024/01/11 11:21:45;;;;;;;51.72;23.95;;;-0.30;99.90;;;;;;5049825;28;20179;-51
2024/01/11 11:24:11;;;;;;;40.22;21.35;;;-0.30;99.90;;;;;;5050201;28;20178;-51
2024/01/11 11:26:37;;;;;;;45.55;23.95;;;-0.20;99.90;;;;;;5050043;28;20163;-52
2024/01/11 11:29:05;;;;;;;46.08;24.88;;;-0.20;99.90;;;;;;5050656;28;20173;-51
2024/01/11 11:31:53;;;;;;;45.50;23.13;;;-0.10;99.90;;;;;;5050728;28;20185;-52
2024/01/11 11:34:20;;;;;;;46.42;22.20;;;-0.10;99.90;;;;;;5049763;28;20163;-51
2024/01/11 11:36:54;;;;;;;40.92;23.60;;;0.00;99.90;;;;;;5047494;28;20432;-54
2024/01/11 11:39:20;;;;;;;51.30;23.52;;;0.00;99.90;;;;;;5047933;28;20174;-54
2024/01/11 11:41:46;;;;;;;43.90;24.35;;;0.10;99.90;;;;;;5048017;28;20651;-54
2024/01/11 11:44:15;;;;;;;44.70;24.40;;;0.20;99.90;;;;;;5049609;28;20169;-52
2024/01/11 11:46:41;;;;;;;42.75;22.55;;;0.30;99.90;;;;;;5049331;28;20194;-51
2024/01/11 11:49:07;;;;;;;52.83;23.95;;;0.20;99.90;;;;;;5049511;28;20268;-51
2024/01/11 11:51:32;;;;;;;44.83;23.55;;;0.30;99.90;;;;;;5049293;28;20159;-51
2024/01/11 11:53:58;;;;;;;50.80;24.65;;;0.30;99.90;;;;;;5048911;28;20529;-51
2024/01/11 11:56:24;;;;;;;43.60;22.20;;;0.40;99.90;;;;;;5048834;28;20627;-52
2024/01/11 11:58:52;;;;;;;47.97;24.15;;;0.30;99.90;;;;;;5049066;28;20192;-55
2024/01/11 12:01:18;;;;;;;47.10;23.23;;;0.40;99.90;;;;;;5049206;28;20220;-55
2024/01/11 12:03:50;;;;;;;45.38;23.15;;;0.40;99.90;;;;;;5049042;28;20178;-52
2024/01/11 12:06:20;;;;;;;43.42;23.08;;;0.50;99.90;;;;;;5048902;28;20240;-55
2024/01/11 12:08:48;;;;;;;38.25;18.75;;;0.40;99.90;;;;;;5048891;28;20638;-55
2024/01/11 12:11:18;;;;;;;52.60;21.83;;;0.40;99.90;;;;;;5048945;28;20191;-55
2024/01/11 12:13:44;;;;;;;37.30;20.23;;;0.40;99.90;;;;;;5051027;28;20190;-54
2024/01/11 12:16:11;;;;;;;40.22;19.33;;;0.50;99.90;;;;;;5052788;28;20213;-54
2024/01/11 12:18:36;;;;;;;40.13;20.85;;;0.40;99.90;;;;;;5052966;28;20205;-53
2024/01/11 12:21:02;;;;;;;38.97;20.23;;;0.50;99.90;;;;;;5053118;28;20194;-49
2024/01/11 12:23:31;;;;;;;41.63;22.30;;;0.60;99.90;;;;;;5051789;28;20198;-53